Time;durP1;ratioP1;P1;durP2;ratioP2;P2;SDS_P1;SDS_P2;PMS_P1;PMS_P2;Temp;Humidity;BMP_temperature;BMP_pressure;BME280_temperature;BME280_humidity;BME280_pressure;Samples;Min_cycle;Max_cycle;Signal;HPM_P1;HPM_P2
2021/03/10 00:01:33;;;;;;;29.07;14.35;;;;;;;8.28;30.73;100577.70;2436458;79;25296;-88
2021/03/10 00:06:23;;;;;;;;;;;;;;;;;;;;;
2021/03/10 00:22:09;;;;;;;29.07;13.87;;;;;;;8.12;30.97;100576.67;2601338;76;25787;-77
2021/03/10 00:34:59;;;;;;;23.97;13.40;;;;;;;7.99;31.07;100580.94;2551704;77;27971;-81
2021/03/10 00:38:30;;;;;;;25.32;13.90;;;;;;;7.92;31.09;100582.41;2321841;85;25808;-77
2021/03/10 00:42:41;;;;;;;;;;;;;;;;;;;;;
2021/03/10 00:46:56;;;;;;;;;;;;;;;;;;;;;
2021/03/10 00:50:57;;;;;;;;;;;;;;;;;;;;;
2021/03/10 00:54:50;;;;;;;23.05;13.83;;;;;;;7.76;31.32;100563.20;2342453;83;25719;-80
2021/03/10 00:58:13;;;;;;;29.20;13.30;;;;;;;7.72;31.37;100564.80;2349383;84;25655;-78
2021/03/10 01:01:44;;;;;;;23.77;13.62;;;;;;;7.68;31.37;100560.73;2302381;84;25649;-75
2021/03/10 01:05:11;;;;;;;24.45;13.85;;;;;;;7.66;31.41;100569.78;2338295;84;25772;-77
2021/03/10 01:08:36;;;;;;;27.48;13.22;;;;;;;7.63;31.44;100565.77;2338369;84;25407;-75
2021/03/10 01:12:02;;;;;;;25.60;13.20;;;;;;;7.61;31.49;100565.23;2338407;84;25469;-75
2021/03/10 01:15:42;;;;;;;23.22;13.53;;;;;;;7.57;31.55;100564.23;2338353;84;25792;-75
2021/03/10 01:30:28;;;;;;;27.87;13.90;;;;;;;7.50;31.71;100553.14;2492171;77;25834;-76
2021/03/10 01:49:17;;;;;;;31.63;15.20;;;;;;;7.36;31.83;100539.64;2505227;77;25832;-75
2021/03/10 01:58:05;;;;;;;30.12;14.58;;;;;;;7.28;31.93;100538.44;2408610;80;25584;-76
2021/03/10 02:36:52;;;;;;;;;;;;;;;;;;;;;
2021/03/10 02:55:40;;;;;;;;;;;;;;;;;;;;;
2021/03/10 02:59:15;;;;;;;34.92;17.23;;;;;;;6.94;32.43;100526.73;2464018;80;25381;-76
2021/03/10 03:03:14;;;;;;;;;;;;;;;6.92;32.55;100522.30;2415428;81;25773;-76
2021/03/10 03:16:08;;;;;;;34.78;16.82;;;;;;;6.85;32.63;100522.45;2192890;88;25509;-75
2021/03/10 03:20:31;;;;;;;34.30;17.23;;;;;;;6.86;32.64;100516.48;2496283;77;25607;-76
2021/03/10 03:24:31;;;;;;;;;;;;;;;;;;;;;
2021/03/10 03:28:16;;;;;;;31.82;17.92;;;;;;;6.78;32.77;100530.42;2475181;79;25627;-74
2021/03/10 03:43:51;;;;;;;;;;;;;;;;;;;;;
2021/03/10 03:47:45;;;;;;;35.40;17.57;;;;;;;6.71;32.98;100518.01;2570571;75;25910;-78
2021/03/10 03:51:40;;;;;;;35.63;19.15;;;;;;;6.64;33.01;100519.88;2394869;79;25726;-79
2021/03/10 03:55:28;;;;;;;34.60;19.12;;;;;;;6.61;33.04;100526.22;2393279;80;25710;-76
2021/03/10 03:59:04;;;;;;;36.15;19.60;;;;;;;6.60;33.05;100521.45;2367210;81;25652;-85
2021/03/10 04:02:55;;;;;;;41.95;19.02;;;;;;;6.59;33.10;100521.41;2366518;81;25853;-77
2021/03/10 04:21:11;;;;;;;30.17;16.73;;;;;;;6.51;33.20;100525.36;2587168;74;25339;-81
2021/03/10 04:24:51;;;;;;;32.23;18.65;;;;;;;6.43;33.25;100520.28;2472168;79;25416;-77
2021/03/10 04:28:28;;;;;;;38.60;19.73;;;;;;;6.41;33.26;100527.09;2478523;79;25639;-78
2021/03/10 04:32:04;;;;;;;35.38;18.60;;;;;;;6.38;33.35;100528.75;2450046;79;25732;-78
2021/03/10 04:36:19;;;;;;;37.93;19.83;;;;;;;6.43;33.38;100529.35;2551484;77;25529;-76
2021/03/10 05:09:41;;;;;;;34.20;19.23;;;;;;;6.28;33.57;100529.17;2451955;78;25494;-75
2021/03/10 05:13:08;;;;;;;;;;;;;;;6.24;33.62;100532.84;2378400;81;25688;-78
2021/03/10 05:17:15;;;;;;;;;;;;;;;;;;;;;
2021/03/10 05:39:16;;;;;;;35.03;18.77;;;;;;;6.50;33.55;100530.08;2410902;80;25733;-76
2021/03/10 05:43:02;;;;;;;45.55;20.25;;;;;;;6.50;33.52;100533.97;2281201;85;25788;-75
2021/03/10 05:46:52;;;;;;;38.58;19.42;;;;;;;6.56;33.42;100535.52;2209127;89;25832;-78
2021/03/10 05:50:56;;;;;;;35.67;18.80;;;;;;;6.71;33.38;100533.97;2554885;77;25096;-78
2021/03/10 05:59:13;;;;;;;;;;;;;;;;;;;;;
2021/03/10 06:14:05;;;;;;;37.33;18.33;;;;;;;7.37;33.02;100558.26;2652832;74;26080;-79
2021/03/10 06:45:04;;;;;;;35.93;17.67;;;;;;;8.34;32.45;100574.86;2467027;77;25856;-76
2021/03/10 06:47:52;;;;;;;35.58;19.42;;;;;;;8.45;32.38;100578.33;2312772;80;25697;-77
2021/03/10 06:52:13;;;;;;;;;;;;;;;;;;;;;
2021/03/10 07:06:41;;;;;;;39.13;19.33;;;;;;;9.55;31.72;100598.02;2490838;78;25655;-76
2021/03/10 07:10:36;;;;;;;38.07;20.13;;;;;;;9.68;31.59;100594.05;2533595;76;25550;-79
2021/03/10 07:30:22;;;;;;;36.60;18.57;;;;;;;10.66;30.75;100607.73;2502267;79;25524;-81
2021/03/10 07:34:20;;;;;;;;;;;;;;;;;;;;;
2021/03/10 07:48:38;;;;;;;34.73;20.10;;;;;;;12.10;30.06;100619.06;2530876;77;26075;-85
2021/03/10 07:52:20;;;;;;;34.55;18.65;;;;;;;13.00;29.56;100621.70;2460668;80;25444;-75
2021/03/10 07:56:17;;;;;;;37.60;19.50;;;;;;;14.26;28.78;100616.17;2553728;77;30793;-76
2021/03/10 08:00:13;;;;;;;;;;;;;;;;;;;;;
2021/03/10 08:04:16;;;;;;;;;;;;;;;;;;;;;
2021/03/10 08:08:30;;;;;;;37.20;18.50;;;;;;;17.45;26.03;100630.43;2492928;78;25634;-77
2021/03/10 08:12:42;;;;;;;37.20;20.77;;;;;;;18.52;25.16;100635.86;2508525;78;25757;-80
2021/03/10 08:16:37;;;;;;;32.53;19.05;;;;;;;20.77;23.86;100640.02;2419043;81;25653;-77
2021/03/10 09:11:46;;;;;;;19.07;13.60;;;;;;;35.02;14.90;100671.91;2497365;78;25743;-79
2021/03/10 09:15:54;;;;;;;13.90;12.18;;;;;;;35.24;15.06;100676.59;2217480;87;25652;-78
2021/03/10 09:52:39;;;;;;;10.68;8.08;;;;;;;27.63;12.52;100652.73;2482069;77;25845;-85
2021/03/10 10:43:43;;;;;;;13.15;7.47;;;;;;;20.65;15.44;100638.40;2467887;77;25405;-83
2021/03/10 10:52:50;;;;;;;10.50;7.28;;;;;;;20.41;15.86;100636.92;2434947;80;25166;-82
2021/03/10 10:56:21;;;;;;;8.88;6.00;;;;;;;20.22;15.97;100641.59;2463766;79;25658;-81
2021/03/10 11:00:20;;;;;;;11.97;6.62;;;;;;;20.26;16.10;100638.00;2417042;81;25598;-80
2021/03/10 11:03:51;;;;;;;8.15;6.65;;;;;;;20.25;16.23;100639.77;2423474;80;25641;-82
2021/03/10 11:07:33;;;;;;;6.95;6.33;;;;;;;20.84;16.14;100628.43;2400436;80;25754;-82
2021/03/10 11:26:11;;;;;;;11.08;7.87;;;;;;;19.61;16.53;100605.14;2509634;77;31000;-82
2021/03/10 11:29:54;;;;;;;;;;;;;;;;;;;;;
2021/03/10 11:33:23;;;;;;;15.03;8.20;;;;;;;19.73;16.78;100613.87;2405026;81;25816;-82
2021/03/10 11:37:33;;;;;;;11.35;7.17;;;;;;;19.73;16.75;100605.06;2416868;80;25547;-80
2021/03/10 11:41:09;;;;;;;9.45;7.05;;;;;;;19.93;16.92;100606.17;2418332;79;25896;-82
2021/03/10 11:44:42;;;;;;;8.13;6.60;;;;;;;19.91;17.05;100603.98;2224411;88;25786;-81
2021/03/10 12:14:50;;;;;;;;;;;;;;;;;;;;;
2021/03/10 12:34:16;;;;;;;12.03;6.80;;;;;;;20.38;17.17;100572.95;2287004;84;25809;-83
2021/03/10 13:10:58;;;;;;;10.30;7.40;;;;;;;21.64;15.67;100567.02;2420416;81;25292;-83
2021/03/10 13:14:54;;;;;;;13.83;7.17;;;;;;;21.68;15.69;100566.05;2416316;81;25745;-82
2021/03/10 13:29:57;;;;;;;;;;;;;;;;;;;;;
2021/03/10 13:33:34;;;;;;;9.75;7.05;;;;;;;20.41;16.02;100564.97;2243385;87;25733;-83
2021/03/10 13:37:42;;;;;;;9.33;7.55;;;;;;;20.36;15.96;100568.59;2512012;77;30854;-84
2021/03/10 13:41:07;;;;;;;13.18;8.03;;;;;;;20.24;15.97;100565.20;2460051;80;25641;-84
2021/03/10 13:45:07;;;;;;;10.60;7.00;;;;;;;20.16;16.10;100563.11;2465927;78;25725;-82
2021/03/10 13:48:39;;;;;;;9.70;7.35;;;;;;;20.27;16.20;100561.19;2316909;84;26044;-83
2021/03/10 14:07:20;;;;;;;15.72;6.87;;;;;;;20.67;15.72;100547.41;2421416;77;31028;-83
2021/03/10 14:12:55;;;;;;;10.98;9.80;;;;;;;20.69;15.68;100543.44;2528095;77;30988;-82
2021/03/10 14:16:35;;;;;;;16.12;8.58;;;;;;;20.83;17.05;100548.06;2469571;78;26150;-83
2021/03/10 14:20:12;;;;;;;13.03;7.95;;;;;;;21.25;18.71;100563.27;2408985;79;25765;-83
2021/03/10 14:23:54;;;;;;;9.28;6.83;;;;;;;21.65;19.28;100560.34;2430522;80;25827;-83
2021/03/10 14:42:28;;;;;;;7.20;6.47;;;;;;;21.07;16.82;100548.11;2506964;77;25619;-82
2021/03/10 14:46:46;;;;;;;10.13;7.87;;;;;;;21.48;15.78;100550.51;2505674;77;30812;-82
2021/03/10 14:50:26;;;;;;;9.50;7.33;;;;;;;20.78;15.69;100553.87;2420084;81;25475;-83
2021/03/10 14:53:51;;;;;;;11.30;7.05;;;;;;;20.24;15.72;100557.25;2422641;81;26001;-84
2021/03/10 14:57:39;;;;;;;8.15;6.72;;;;;;;19.67;15.80;100557.06;2441807;80;25820;-84
2021/03/10 15:26:58;;;;;;;8.00;6.40;;;;;;;17.11;17.98;100551.84;2366327;77;30839;-81
2021/03/10 15:31:20;;;;;;;6.35;5.75;;;;;;;17.02;18.31;100557.10;2568198;76;31273;-83
2021/03/10 15:34:50;;;;;;;8.20;6.15;;;;;;;16.91;18.56;100547.89;2428006;79;25873;-80
2021/03/10 15:38:41;;;;;;;8.03;6.62;;;;;;;16.83;18.82;100551.38;2420299;80;25877;-79
2021/03/10 15:42:55;;;;;;;6.83;5.70;;;;;;;16.75;19.18;100543.48;2522040;77;31105;-78
2021/03/10 15:46:36;;;;;;;7.28;6.55;;;;;;;16.62;19.42;100548.26;2492235;78;25426;-79
2021/03/10 15:50:31;;;;;;;6.97;6.22;;;;;;;16.49;19.69;100539.45;2456138;78;25766;-80
2021/03/10 15:54:22;;;;;;;6.50;5.08;;;;;;;16.37;19.88;100540.73;2438623;80;25668;-78
2021/03/10 15:58:11;;;;;;;9.60;6.72;;;;;;;16.23;20.14;100542.01;2382219;82;25712;-79
2021/03/10 16:02:34;;;;;;;;;;;;;;;;;;;;;
2021/03/10 16:06:53;;;;;;;6.62;5.72;;;;;;;15.94;20.66;100545.42;2262087;84;25906;-80
2021/03/10 16:10:22;;;;;;;7.53;5.95;;;;;;;15.77;20.87;100537.47;2290241;84;25844;-81
2021/03/10 16:13:45;;;;;;;7.17;6.20;;;;;;;15.62;21.06;100543.03;2297589;84;25769;-80
2021/03/10 16:17:07;;;;;;;8.75;5.92;;;;;;;15.49;21.24;100539.45;2308507;84;25916;-80
2021/03/10 16:20:38;;;;;;;10.58;6.17;;;;;;;15.37;21.42;100543.33;2318291;84;25590;-78
2021/03/10 16:24:13;;;;;;;5.65;5.10;;;;;;;15.25;21.56;100549.36;2310331;84;25511;-78
2021/03/10 16:27:46;;;;;;;8.33;5.03;;;;;;;15.10;21.74;100543.13;2313319;84;25761;-80
2021/03/10 16:31:18;;;;;;;8.75;5.65;;;;;;;14.96;21.92;100543.47;2294769;84;25758;-79
2021/03/10 16:34:46;;;;;;;9.53;6.45;;;;;;;14.83;22.03;100547.73;2309782;84;25614;-81
2021/03/10 17:00:49;;;;;;;;;;;;;;;;;;;;;
2021/03/10 17:04:52;;;;;;;8.38;6.08;;;;;;;13.77;23.18;100549.59;2395947;80;25713;-80
2021/03/10 17:09:11;;;;;;;12.23;6.33;;;;;;;13.67;23.41;100543.34;2566208;75;30476;-79
2021/03/10 17:12:41;;;;;;;13.15;6.75;;;;;;;13.45;23.61;100539.53;2472303;79;25862;-78
2021/03/10 17:27:28;;;;;;;7.43;5.40;;;;;;;13.15;24.00;100551.70;2474040;78;28218;-81
2021/03/10 17:31:38;;;;;;;;;;;;;;;;;;;;;
2021/03/10 17:35:45;;;;;;;;;;;;;;;;;;;;;
2021/03/10 17:39:42;;;;;;;10.60;8.20;;;;;;;12.84;24.31;100555.98;2592234;76;27136;-79
2021/03/10 17:43:17;;;;;;;11.75;6.83;;;;;;;12.70;24.38;100560.98;2456829;80;25805;-77
2021/03/10 17:47:00;;;;;;;11.05;6.00;;;;;;;12.62;24.48;100554.71;2419417;80;25699;-80
2021/03/10 17:52:06;;;;;;;6.77;6.17;;;;;;;12.56;24.57;100557.24;2509691;77;27946;-77
2021/03/10 17:55:39;;;;;;;11.45;7.15;;;;;;;12.44;24.67;100547.42;2481069;78;25751;-80
2021/03/10 17:59:42;;;;;;;13.98;7.35;;;;;;;12.36;24.80;100563.41;2512841;78;25780;-79
2021/03/10 18:03:30;;;;;;;7.12;6.00;;;;;;;12.28;24.82;100564.14;2390762;82;25725;-77
2021/03/10 18:33:09;;;;;;;13.58;8.60;;;;;;;11.65;25.43;100589.77;2381672;81;25716;-81
2021/03/10 18:47:55;;;;;;;15.33;9.70;;;;;;;11.40;25.70;100602.66;2522068;76;26852;-81
2021/03/10 18:51:51;;;;;;;;;;;;;;;;;;;;;
2021/03/10 19:06:14;;;;;;;17.93;10.67;;;;;;;11.25;27.22;100616.23;2432426;79;26315;-84
2021/03/10 19:09:42;;;;;;;17.00;10.72;;;;;;;11.14;27.32;100627.71;2405589;81;26411;-82
2021/03/10 19:23:44;;;;;;;18.33;11.43;;;;;;;10.93;27.41;100634.97;2420669;79;25739;-78
2021/03/10 19:27:11;;;;;;;18.90;11.65;;;;;;;10.83;27.37;100634.75;2430113;79;25792;-77
2021/03/10 19:42:24;;;;;;;18.67;12.77;;;;;;;10.63;27.43;100638.52;2507532;77;28102;-78
2021/03/10 19:45:46;;;;;;;;;;;;;;;10.54;27.44;100631.77;2391719;81;25727;-76
2021/03/10 19:49:15;;;;;;;25.75;13.70;;;;;;;10.48;27.43;100636.80;2398467;81;25753;-77
2021/03/10 19:52:39;;;;;;;19.92;14.53;;;;;;;10.43;27.45;100645.80;2423993;80;25687;-74
2021/03/10 19:56:16;;;;;;;;;;;;;;;10.39;27.48;100645.23;2396385;81;25761;-76
2021/03/10 19:59:45;;;;;;;21.80;14.20;;;;;;;10.34;27.57;100639.90;2395796;82;25690;-75
2021/03/10 20:03:35;;;;;;;22.77;14.18;;;;;;;10.29;27.61;100642.81;2400924;82;25711;-78
2021/03/10 20:07:01;;;;;;;23.30;13.98;;;;;;;10.25;27.62;100634.80;2432835;81;25619;-79
2021/03/10 20:10:48;;;;;;;20.40;13.18;;;;;;;10.23;28.85;100633.47;2426833;81;25647;-75
2021/03/10 20:14:57;;;;;;;22.45;13.58;;;;;;;10.28;28.66;100630.59;2428865;81;25646;-81
2021/03/10 20:24:38;;;;;;;22.87;14.27;;;;;;;10.23;29.03;100628.27;2504958;78;25973;-79
2021/03/10 20:28:42;;;;;;;;;;;;;;;;;;;;;
2021/03/10 20:55:51;;;;;;;;;;;;;;;;;;;;;
2021/03/10 20:59:46;;;;;;;;;;;;;;;9.68;29.02;100593.63;2339023;84;25862;-79
2021/03/10 21:03:31;;;;;;;25.10;14.58;;;;;;;9.62;29.02;100589.56;2339542;84;25975;-80
2021/03/10 21:07:52;;;;;;;19.57;13.93;;;;;;;9.61;29.02;100586.47;2552591;77;26382;-80
2021/03/10 21:11:49;;;;;;;;;;;;;;;;;;;;;
2021/03/10 21:26:30;;;;;;;19.53;13.67;;;;;;;9.43;29.12;100581.59;2492458;78;25199;-80
2021/03/10 21:48:30;;;;;;;20.50;14.30;;;;;;;9.10;29.10;100566.20;2545606;74;25591;-78
2021/03/10 21:52:08;;;;;;;30.97;15.28;;;;;;;9.07;29.09;100567.41;2533570;75;25717;-78
2021/03/10 21:56:31;;;;;;;;;;;;;;;;;;;;;
2021/03/10 22:00:38;;;;;;;21.73;14.73;;;;;;;9.02;29.13;100563.78;2594909;75;25916;-83
2021/03/10 22:04:33;;;;;;;;;;;;;;;;;;;;;
2021/03/10 22:23:45;;;;;;;35.00;17.75;;;;;;;8.69;29.23;100565.72;2254288;86;26448;-81
2021/03/10 22:27:37;;;;;;;26.15;16.97;;;;;;;8.66;29.30;100564.31;2254597;85;25305;-79
2021/03/10 22:35:17;;;;;;;;;;;;;;;;;;;;;
2021/03/10 22:38:56;;;;;;;29.35;17.40;;;;;;;8.58;29.45;100564.48;2358591;83;25841;-82
2021/03/10 22:47:27;;;;;;;35.35;18.60;;;;;;;8.51;29.56;100560.36;2452839;79;25624;-80
2021/03/10 22:56:05;;;;;;;32.15;18.75;;;;;;;8.46;29.60;100558.42;2253738;85;25758;-81
2021/03/10 23:00:32;;;;;;;38.63;18.73;;;;;;;8.42;29.62;100559.15;2269839;85;25805;-81
2021/03/10 23:16:02;;;;;;;31.90;18.63;;;;;;;8.29;29.71;100544.39;2440540;79;25684;-81
2021/03/10 23:19:36;;;;;;;34.90;18.52;;;;;;;8.20;29.72;100541.48;2386627;82;26317;-81
2021/03/10 23:23:24;;;;;;;34.13;19.35;;;;;;;8.16;29.77;100530.91;2283131;83;25805;-82
2021/03/10 23:38:26;;;;;;;29.40;17.80;;;;;;;8.09;29.91;100548.41;2539104;77;26755;-81
2021/03/10 23:42:36;;;;;;;36.77;18.55;;;;;;;7.99;29.93;100547.19;2427422;79;25329;-82
2021/03/10 23:46:12;;;;;;;34.10;17.50;;;;;;;7.96;29.97;100548.37;2492970;78;25706;-80
2021/03/10 23:50:11;;;;;;;33.65;18.40;;;;;;;7.94;29.99;100544.43;2498434;78;25517;-84
2021/03/10 23:54:18;;;;;;;;;;;;;;;;;;;;;
